Terminal Aerodrome Forecast
Issued by NWS Tampa Bay Area, FL

Home | Current Version | Previous Version | Text Only | Print | Product List | Glossary On
Versions: 1 2 3 4 5 6 7 8 9 10 11 12 13 14 15 16 17 18 19 20
000
FTUS42 KTBW 242300
TAFSRQ
TAF
KSRQ 242332Z 2500/2524 29008KT P6SM SKC
     FM250100 VRB04KT P6SM SKC
     FM250800 VRB03KT 4SM BR FEW010
     FM251300 25006KT P6SM FEW020
     FM251700 26011KT P6SM FEW030=

USA.gov is the U.S. government's official web portal to all federal, state and local government web resources and services.